»·PEaware :: N595MW KLAS-KSNA

N595MW :: KLAS-KSNA

FLIGHT INFORMATION

Flight Status: Arrived
Operator: Privately registered:
United States
More flights under this callsign
Pilot: Max W. (2591)
Aircraft: Unknown
(TBM)
More flights by this aircraft type
Origin: KLAS McCarran Intl
United States
Destination: KSNA John Wayne-Orange Co
United States
More flights between these airports :: More routes between these airports
Route: +LAS GFS HEC KAYOH5
File this flight plan on PilotEdge
Remarks:
Altitude:
(Current/Filed)
26,000ft
Speed:
(Current/Filed)
300kts
Departed: 19-Oct-16 06:38 PM
Arrived: 19-Oct-16 07:42 PM
Distance/Time
Traveled:
197nm/1:04
Distance/Time
To Go:
Arrived

Flight Plot

Page will automatically refresh every two minutes.


Map Options




Map Legend


Flown Route
Filed Route
Departure Airport
Arrival Airport
Navaid (VOR, NDB)
Fix

Horizontal Profiles

Position Reports

Time Latitude Longitude Heading Altitude Ground
Speed
19-Oct-16 18:12 36.080727 -115.171086 269 2185ft 0kts
19-Oct-16 18:13 36.080727 -115.171086 269 2185ft 0kts
19-Oct-16 18:14 36.080727 -115.171086 269 2185ft 0kts
19-Oct-16 18:15 36.080727 -115.171086 269 2185ft 0kts
19-Oct-16 18:16 36.080727 -115.171086 269 2185ft 0kts
19-Oct-16 18:17 36.080727 -115.171086 269 2185ft 0kts
19-Oct-16 18:18 36.080727 -115.171086 269 2185ft 0kts
19-Oct-16 18:19 36.080727 -115.171086 269 2185ft 0kts
19-Oct-16 18:20 36.080727 -115.171086 269 2185ft 0kts
19-Oct-16 18:21 36.080727 -115.171086 269 2185ft 0kts
19-Oct-16 18:22 36.080727 -115.171086 269 2185ft 0kts
19-Oct-16 18:23 36.080727 -115.171086 269 2185ft 0kts
19-Oct-16 18:24 36.080727 -115.171086 269 2185ft 0kts
19-Oct-16 18:25 36.080727 -115.171088 270 2185ft 0kts
19-Oct-16 18:26 36.080727 -115.171088 270 2185ft 0kts
19-Oct-16 18:27 36.080727 -115.171088 270 2185ft 0kts
19-Oct-16 18:28 36.080727 -115.171088 270 2185ft 0kts
19-Oct-16 18:29 36.080782 -115.170775 88 2185ft 0kts
19-Oct-16 18:30 36.079247 -115.170487 207 2185ft 18kts
19-Oct-16 18:31 36.077439 -115.171215 174 2185ft 0kts
19-Oct-16 18:32 36.075605 -115.170206 22 2185ft 6kts
19-Oct-16 18:33 36.092848 -115.159262 9 2959ft 90kts
19-Oct-16 18:34 36.113480 -115.184733 303 3980ft 125kts
19-Oct-16 18:35 36.130592 -115.223529 301 5456ft 153kts
19-Oct-16 18:36 36.102889 -115.251759 181 7022ft 172kts
19-Oct-16 18:37 36.054518 -115.253941 181 8525ft 176kts
19-Oct-16 18:38 36.005141 -115.256353 181 9904ft 180kts
19-Oct-16 18:39 35.954524 -115.258673 181 11177ft 184kts
19-Oct-16 18:40 35.902716 -115.260694 181 12349ft 189kts
19-Oct-16 18:41 35.858577 -115.262169 181 13248ft 192kts
19-Oct-16 18:42 35.804568 -115.263668 181 14252ft 197kts
19-Oct-16 18:43 35.749001 -115.264850 181 15017ft 211kts
19-Oct-16 18:44 35.686121 -115.266068 181 15023ft 236kts
19-Oct-16 18:45 35.619213 -115.267365 181 15028ft 243kts
19-Oct-16 18:46 35.551616 -115.268679 181 15083ft 243kts
19-Oct-16 18:47 35.485813 -115.253804 170 15081ft 242kts
19-Oct-16 18:48 35.420480 -115.240350 169 15088ft 244kts
19-Oct-16 18:49 35.353821 -115.225746 169 15306ft 234kts
19-Oct-16 18:50 35.295189 -115.212688 169 16390ft 204kts
19-Oct-16 18:51 35.238158 -115.200009 169 17649ft 211kts
19-Oct-16 18:52 35.179640 -115.187026 170 18949ft 217kts
19-Oct-16 18:53 35.130697 -115.210503 247 19198ft 207kts
19-Oct-16 18:54 35.107297 -115.280169 255 19390ft 231kts
19-Oct-16 18:55 35.086398 -115.354628 258 20127ft 233kts
19-Oct-16 18:56 35.066740 -115.429929 259 21210ft 233kts
19-Oct-16 18:57 35.047288 -115.505513 259 22142ft 234kts
19-Oct-16 18:58 35.027698 -115.581748 259 22962ft 237kts
19-Oct-16 18:59 35.007812 -115.658905 259 23683ft 239kts
19-Oct-16 19:00 34.987597 -115.737132 259 24637ft 242kts
19-Oct-16 19:01 34.967118 -115.816151 258 25494ft 246kts
19-Oct-16 19:02 34.946390 -115.895896 258 26183ft 251kts
19-Oct-16 19:03 34.924352 -115.980443 257 26206ft 269kts
19-Oct-16 19:04 34.900984 -116.069679 257 26212ft 281kts
19-Oct-16 19:05 34.877439 -116.159313 256 26212ft 286kts
19-Oct-16 19:06 34.853022 -116.251994 256 26200ft 288kts
19-Oct-16 19:07 34.828406 -116.345069 256 26193ft 289kts
19-Oct-16 19:08 34.803684 -116.438244 256 26184ft 290kts
19-Oct-16 19:09 34.752365 -116.515612 231 26182ft 296kts
19-Oct-16 19:10 34.694110 -116.589526 230 25476ft 306kts
19-Oct-16 19:11 34.634092 -116.663398 228 24685ft 309kts
19-Oct-16 19:12 34.573863 -116.737299 227 24183ft 302kts
19-Oct-16 19:13 34.516247 -116.807732 229 23883ft 282kts
19-Oct-16 19:14 34.460620 -116.875530 227 21125ft 282kts
19-Oct-16 19:15 34.409042 -116.938394 228 18794ft 269kts
19-Oct-16 19:16 34.358270 -117.000152 226 16183ft 258kts
19-Oct-16 19:17 34.309095 -117.059738 225 13621ft 246kts
19-Oct-16 19:18 34.258862 -117.108485 197 12968ft 256kts
19-Oct-16 19:19 34.187278 -117.123612 187 12257ft 274kts
19-Oct-16 19:20 34.111250 -117.135829 188 11554ft 278kts
19-Oct-16 19:21 34.034957 -117.147329 188 11015ft 273kts
19-Oct-16 19:22 33.961416 -117.158215 187 11045ft 264kts
19-Oct-16 19:23 33.888964 -117.168848 185 11066ft 264kts
19-Oct-16 19:24 33.817378 -117.184759 208 11076ft 261kts
19-Oct-16 19:25 33.782852 -117.254736 272 11010ft 258kts
19-Oct-16 19:26 33.778827 -117.341879 272 10499ft 264kts
19-Oct-16 19:27 33.779025 -117.427930 273 9242ft 249kts
19-Oct-16 19:28 33.779387 -117.507912 271 8039ft 215kts
19-Oct-16 19:29 33.778414 -117.577158 271 6156ft 209kts
19-Oct-16 19:30 33.777540 -117.641677 271 6036ft 212kts
19-Oct-16 19:31 33.778426 -117.712760 274 5259ft 203kts
19-Oct-16 19:32 33.780856 -117.781037 273 3050ft 199kts
19-Oct-16 19:33 33.754229 -117.820835 201 1735ft 160kts
19-Oct-16 19:34 33.719390 -117.840977 210 1004ft 110kts
19-Oct-16 19:35 33.695356 -117.856275 207 437ft 94kts
19-Oct-16 19:36 33.674173 -117.869781 207 59ft 65kts
19-Oct-16 19:37 33.670153 -117.869826 41 59ft 34kts
19-Oct-16 19:38 33.671953 -117.866893 24 59ft 0kts

Navigation Log

Ident Type
Flight plan parsing failed, navigation log unavailable